createdAt,value
2018-10-16T00:00:38.783Z,14.66
2018-10-16T00:04:45.778Z,14.58
2018-10-16T00:08:52.790Z,14.56
2018-10-16T00:12:59.825Z,14.52
2018-10-16T00:17:06.886Z,14.55
2018-10-16T00:21:13.945Z,14.44
2018-10-16T00:25:20.979Z,14.46
2018-10-16T00:29:28.018Z,14.45
2018-10-16T00:33:35.058Z,14.48
2018-10-16T00:37:42.092Z,14.46
2018-10-16T00:41:56.516Z,14.38
2018-10-16T00:46:03.632Z,14.21
2018-10-16T00:50:10.909Z,14.20
2018-10-16T00:54:17.977Z,14.21
2018-10-16T00:58:25.001Z,14.07
2018-10-16T01:02:32.018Z,13.84
2018-10-16T01:06:39.484Z,13.73
2018-10-16T01:10:46.516Z,13.27
2018-10-16T01:14:53.523Z,13.27
2018-10-16T01:19:00.537Z,13.31
2018-10-16T01:23:07.713Z,12.91
2018-10-16T01:27:14.750Z,12.83
2018-10-16T01:31:21.771Z,12.90
2018-10-16T01:35:28.781Z,12.98
2018-10-16T01:39:35.772Z,12.88
2018-10-16T01:43:42.784Z,12.77
2018-10-16T01:47:49.823Z,12.49
2018-10-16T01:51:56.848Z,12.34
2018-10-16T01:56:03.848Z,12.40
2018-10-16T02:00:11.966Z,12.20
2018-10-16T02:04:18.984Z,12.05
2018-10-16T02:08:26.013Z,12.08
2018-10-16T02:12:33.023Z,12.17
2018-10-16T02:16:40.021Z,11.93
2018-10-16T02:20:47.010Z,11.92
2018-10-16T02:24:53.990Z,11.86
2018-10-16T02:29:00.966Z,11.94
2018-10-16T02:33:08.149Z,11.93
2018-10-16T02:37:15.076Z,11.96
2018-10-16T02:41:22.169Z,12.04
2018-10-16T02:45:29.192Z,12.06
2018-10-16T02:49:36.243Z,12.17
2018-10-16T02:53:43.257Z,12.19
2018-10-16T02:57:50.256Z,12.10
2018-10-16T03:01:57.310Z,12.14
2018-10-16T03:06:04.372Z,11.98
2018-10-16T03:10:11.381Z,12.07
2018-10-16T03:14:18.404Z,12.15
2018-10-16T03:18:25.422Z,12.21
2018-10-16T03:22:32.475Z,12.17
2018-10-16T03:26:39.966Z,12.21
2018-10-16T03:30:46.957Z,12.21
2018-10-16T03:34:54.001Z,12.22
2018-10-16T03:39:01.033Z,12.17
2018-10-16T03:43:08.278Z,12.10
2018-10-16T03:47:15.326Z,12.25
2018-10-16T03:51:22.375Z,12.11
2018-10-16T03:55:29.415Z,12.11
2018-10-16T03:59:36.494Z,12.14
2018-10-16T04:03:43.506Z,12.15
2018-10-16T04:07:50.510Z,12.14
2018-10-16T04:11:57.551Z,12.10
2018-10-16T04:16:04.564Z,12.12
2018-10-16T04:20:11.655Z,11.98
2018-10-16T04:24:18.596Z,12.02
2018-10-16T04:28:25.630Z,12.06
2018-10-16T04:32:32.650Z,11.99
2018-10-16T04:36:39.751Z,11.96
2018-10-16T04:40:46.755Z,11.89
2018-10-16T04:44:53.787Z,11.89
2018-10-16T04:49:00.763Z,11.86
2018-10-16T04:53:08.163Z,11.85
2018-10-16T04:57:15.233Z,11.65
2018-10-16T05:01:22.314Z,11.58
2018-10-16T05:05:29.390Z,11.64
2018-10-16T05:09:36.444Z,11.32
2018-10-16T05:13:43.472Z,11.99
2018-10-16T05:17:50.532Z,11.74
2018-10-16T05:21:57.580Z,11.61
2018-10-16T05:26:04.915Z,11.73
2018-10-16T05:30:12.135Z,11.59
2018-10-16T05:34:19.257Z,11.57
2018-10-16T05:38:26.305Z,11.62
2018-10-16T05:42:33.372Z,11.65
2018-10-16T05:46:40.397Z,11.59
2018-10-16T05:50:47.438Z,11.33
2018-10-16T05:54:55.050Z,11.33
2018-10-16T05:59:02.128Z,11.20
2018-10-16T06:03:09.198Z,11.29
2018-10-16T06:07:16.255Z,10.99
2018-10-16T06:11:23.306Z,10.91
2018-10-16T06:15:30.364Z,10.74
2018-10-16T06:19:37.497Z,10.62
2018-10-16T06:23:44.525Z,10.59
2018-10-16T06:27:51.580Z,10.54
2018-10-16T06:31:58.594Z,10.63
2018-10-16T06:36:05.689Z,10.78
2018-10-16T06:40:12.722Z,10.83
2018-10-16T06:44:19.848Z,10.98
2018-10-16T06:48:27.009Z,10.97
2018-10-16T06:52:33.863Z,11.02
2018-10-16T06:56:40.880Z,11.06
2018-10-16T07:00:48.022Z,10.99
2018-10-16T07:04:54.949Z,11.04
2018-10-16T07:09:01.952Z,10.96
2018-10-16T07:13:09.080Z,11.10
2018-10-16T07:17:16.017Z,11.20
2018-10-16T07:21:23.207Z,11.42
2018-10-16T07:25:30.093Z,11.64
2018-10-16T07:29:37.437Z,11.77
2018-10-16T07:33:44.469Z,12.06
2018-10-16T07:37:51.518Z,12.29
2018-10-16T07:41:58.498Z,12.60
2018-10-16T07:46:05.636Z,12.60
2018-10-16T07:50:13.616Z,13.19
2018-10-16T07:54:20.752Z,13.36
2018-10-16T07:58:27.749Z,13.88
2018-10-16T08:02:34.785Z,14.48
2018-10-16T08:06:41.790Z,15.02
2018-10-16T08:10:48.818Z,15.79
2018-10-16T08:14:55.841Z,15.78
2018-10-16T08:19:02.901Z,15.89
2018-10-16T08:23:09.948Z,16.69
2018-10-16T08:27:16.953Z,17.88
2018-10-16T08:31:23.990Z,18.04
2018-10-16T08:35:31.123Z,18.05
2018-10-16T08:39:41.485Z,18.10
2018-10-16T08:44:33.213Z,18.54
2018-10-16T08:49:34.256Z,18.67
2018-10-16T08:53:41.291Z,18.32
2018-10-16T08:57:48.429Z,18.21
2018-10-16T09:01:55.499Z,18.32
2018-10-16T09:06:02.591Z,18.05
2018-10-16T09:10:09.685Z,18.74
2018-10-16T09:14:17.282Z,18.35
2018-10-16T09:18:24.303Z,18.16
2018-10-16T09:22:31.929Z,18.10
2018-10-16T09:26:38.952Z,18.10
2018-10-16T09:30:46.084Z,17.90
2018-10-16T09:34:53.189Z,18.15
2018-10-16T09:39:00.303Z,18.26
2018-10-16T09:43:07.415Z,18.24
2018-10-16T09:47:14.466Z,18.44
2018-10-16T09:51:21.519Z,18.34
2018-10-16T09:55:28.573Z,18.39
2018-10-16T09:59:35.597Z,18.66
2018-10-16T10:03:42.621Z,18.55
2018-10-16T10:07:49.660Z,18.50
2018-10-16T10:11:56.685Z,18.91
2018-10-16T10:16:03.720Z,18.95
2018-10-16T10:20:11.198Z,19.25
2018-10-16T10:24:18.251Z,19.30
2018-10-16T10:28:25.276Z,19.69
2018-10-16T10:32:32.569Z,19.67
2018-10-16T10:36:39.566Z,19.82
2018-10-16T10:40:46.623Z,19.92
2018-10-16T10:44:53.656Z,20.04
2018-10-16T10:49:00.670Z,20.20
2018-10-16T10:53:07.740Z,20.45
2018-10-16T10:57:14.846Z,20.43
2018-10-16T11:01:21.875Z,20.37
2018-10-16T11:05:29.194Z,20.86
2018-10-16T11:09:36.716Z,20.94
2018-10-16T11:13:43.743Z,21.26
2018-10-16T11:17:51.227Z,21.07
2018-10-16T11:21:58.272Z,21.68
2018-10-16T11:26:05.280Z,21.99
2018-10-16T11:30:16.926Z,22.03
2018-10-16T11:34:23.949Z,22.44
2018-10-16T11:38:31.011Z,23.02
2018-10-16T11:42:38.045Z,23.71
2018-10-16T11:46:45.044Z,24.77
2018-10-16T11:50:52.052Z,25.48
2018-10-16T11:54:59.064Z,25.28
2018-10-16T11:59:06.320Z,26.47
2018-10-16T12:03:13.304Z,27.01
2018-10-16T12:07:20.294Z,27.00
2018-10-16T12:11:27.370Z,27.75
2018-10-16T12:15:34.381Z,28.15
2018-10-16T12:19:44.999Z,28.04
2018-10-16T12:23:52.284Z,27.76
2018-10-16T12:27:59.592Z,27.95
2018-10-16T12:32:07.048Z,28.02
2018-10-16T12:36:14.289Z,28.21
2018-10-16T12:40:21.531Z,28.70
2018-10-16T12:44:28.774Z,28.61
2018-10-16T12:48:36.083Z,28.18
2018-10-16T12:52:43.359Z,29.22
2018-10-16T12:56:50.710Z,28.59
2018-10-16T13:00:57.928Z,28.98
2018-10-16T13:05:05.181Z,28.57
2018-10-16T13:09:13.388Z,29.20
2018-10-16T13:13:20.637Z,29.90
2018-10-16T13:17:27.869Z,28.95
2018-10-16T13:21:34.936Z,29.42
2018-10-16T13:25:42.013Z,29.88
2018-10-16T13:29:49.105Z,28.82
2018-10-16T13:33:56.244Z,29.13
2018-10-16T13:38:03.169Z,28.51
2018-10-16T13:42:10.653Z,27.66
2018-10-16T13:46:17.686Z,27.75
2018-10-16T13:50:24.724Z,27.53
2018-10-16T13:54:31.747Z,26.67
2018-10-16T13:58:38.775Z,26.72
2018-10-16T14:02:46.932Z,25.81
2018-10-16T14:06:53.986Z,25.91
2018-10-16T14:11:01.031Z,25.41
2018-10-16T14:15:08.437Z,25.30
2018-10-16T14:19:15.465Z,25.50
2018-10-16T14:23:22.537Z,25.09
2018-10-16T14:27:29.647Z,25.33
2018-10-16T14:31:38.082Z,25.03
2018-10-16T14:35:45.286Z,24.89
2018-10-16T14:39:52.356Z,24.97
2018-10-16T14:43:59.355Z,25.06
2018-10-16T14:48:06.458Z,24.92
2018-10-16T14:52:13.461Z,25.09
2018-10-16T14:56:20.427Z,24.91
2018-10-16T15:00:27.427Z,24.79
2018-10-16T15:04:34.669Z,25.02
2018-10-16T15:08:41.689Z,24.85
2018-10-16T15:16:55.665Z,24.76
2018-10-16T15:21:03.683Z,24.71
2018-10-16T15:25:11.719Z,24.57
2018-10-16T15:29:18.796Z,24.43
2018-10-16T15:33:25.912Z,24.48
2018-10-16T15:37:33.042Z,24.48
2018-10-16T15:41:40.135Z,24.34
2018-10-16T15:45:47.166Z,24.25
2018-10-16T15:49:54.198Z,24.09
2018-10-16T15:54:01.341Z,23.94
2018-10-16T15:58:08.940Z,23.77
2018-10-16T16:02:16.094Z,23.63
2018-10-16T16:06:23.061Z,23.62
2018-10-16T16:10:30.126Z,23.45
2018-10-16T16:14:37.266Z,23.33
2018-10-16T16:18:44.312Z,23.13
2018-10-16T16:22:51.360Z,23.02
2018-10-16T16:26:58.480Z,22.97
2018-10-16T16:31:05.416Z,22.80
2018-10-16T16:35:12.499Z,22.59
2018-10-16T16:39:19.485Z,22.44
2018-10-16T16:43:26.514Z,22.36
2018-10-16T16:47:33.537Z,22.17
2018-10-16T16:51:40.660Z,22.09
2018-10-16T16:55:47.818Z,21.91
2018-10-16T16:59:54.821Z,21.66
2018-10-16T17:04:01.866Z,21.63
2018-10-16T17:08:08.977Z,21.54
2018-10-16T17:12:15.895Z,21.48
2018-10-16T17:16:22.968Z,21.39
2018-10-16T17:20:29.979Z,21.29
2018-10-16T17:24:37.070Z,21.18
2018-10-16T17:28:44.122Z,21.10
2018-10-16T17:32:51.223Z,20.93
2018-10-16T17:36:58.262Z,20.88
2018-10-16T17:41:05.347Z,20.77
2018-10-16T17:45:13.766Z,20.67
2018-10-16T17:49:20.842Z,20.62
2018-10-16T17:53:27.953Z,20.58
2018-10-16T18:01:42.190Z,20.40
2018-10-16T18:05:49.444Z,20.30
2018-10-16T18:09:57.640Z,20.32
2018-10-16T18:14:04.661Z,20.33
2018-10-16T18:18:11.752Z,20.14
2018-10-16T18:22:18.757Z,20.13
2018-10-16T18:26:25.777Z,20.13
2018-10-16T18:30:33.860Z,20.01
2018-10-16T18:34:40.883Z,19.97
2018-10-16T18:38:47.938Z,19.94
2018-10-16T18:42:54.980Z,19.90
2018-10-16T18:47:02.007Z,19.84
2018-10-16T18:51:09.618Z,19.81
2018-10-16T18:55:16.791Z,19.77
2018-10-16T18:59:23.817Z,19.71
2018-10-16T19:03:30.879Z,19.65
2018-10-16T19:07:38.070Z,19.59
2018-10-16T19:11:45.172Z,19.61
2018-10-16T19:15:52.238Z,19.51
2018-10-16T19:19:59.374Z,19.53
2018-10-16T19:24:06.455Z,19.39
2018-10-16T19:28:13.542Z,19.42
2018-10-16T19:32:20.591Z,19.45
2018-10-16T19:36:27.639Z,19.21
2018-10-16T19:40:34.670Z,19.31
2018-10-16T19:44:41.885Z,19.20
2018-10-16T19:48:48.861Z,19.16
2018-10-16T19:52:55.892Z,19.04
2018-10-16T19:57:03.060Z,19.00
2018-10-16T20:01:10.018Z,18.98
2018-10-16T20:05:17.049Z,19.03
2018-10-16T20:09:24.119Z,19.02
2018-10-16T20:13:32.024Z,18.96
2018-10-16T20:17:39.905Z,18.81
2018-10-16T20:21:47.065Z,18.86
2018-10-16T20:25:54.092Z,18.80
2018-10-16T20:30:01.426Z,18.74
2018-10-16T20:34:08.793Z,18.74
2018-10-16T20:38:16.158Z,18.57
2018-10-16T20:42:23.438Z,18.64
2018-10-16T20:46:30.561Z,18.61
2018-10-16T20:50:37.873Z,18.60
2018-10-16T20:54:44.983Z,18.57
2018-10-16T20:58:52.173Z,18.50
2018-10-16T21:02:59.117Z,18.43
2018-10-16T21:07:07.280Z,18.37
2018-10-16T21:11:15.304Z,18.30
2018-10-16T21:15:22.759Z,18.18
2018-10-16T21:19:33.233Z,18.10
2018-10-16T21:23:41.709Z,18.05
2018-10-16T21:27:49.007Z,17.95
2018-10-16T21:32:05.648Z,17.88
2018-10-16T21:36:12.883Z,17.76
2018-10-16T21:40:20.274Z,17.79
2018-10-16T21:44:27.937Z,17.78
2018-10-16T21:48:35.133Z,17.73
2018-10-16T21:52:43.459Z,17.70
2018-10-16T21:56:51.050Z,17.76
2018-10-16T22:01:13.934Z,17.76
2018-10-16T22:05:24.536Z,17.66
2018-10-16T22:09:31.573Z,17.51
2018-10-16T22:13:38.655Z,17.40
2018-10-16T22:17:45.678Z,17.36
2018-10-16T22:21:52.694Z,17.13
2018-10-16T22:25:59.726Z,17.17
2018-10-16T22:30:07.375Z,17.06
2018-10-16T22:34:14.358Z,17.02
2018-10-16T22:38:21.371Z,16.95
2018-10-16T22:42:28.484Z,16.96
2018-10-16T22:46:35.677Z,16.89
2018-10-16T22:50:42.711Z,16.86
2018-10-16T22:54:49.755Z,16.76
2018-10-16T22:58:56.822Z,16.76
2018-10-16T23:03:03.854Z,16.80
2018-10-16T23:07:10.974Z,16.61
2018-10-16T23:11:18.063Z,16.59
2018-10-16T23:15:25.003Z,16.50
2018-10-16T23:19:32.025Z,16.54
2018-10-16T23:23:39.069Z,16.48
2018-10-16T23:27:46.117Z,16.44
2018-10-16T23:31:53.128Z,16.41
2018-10-16T23:36:00.176Z,16.42
2018-10-16T23:40:07.734Z,16.31
2018-10-16T23:44:14.799Z,16.24
2018-10-16T23:48:21.819Z,16.21
2018-10-16T23:52:28.801Z,16.24
2018-10-16T23:56:35.872Z,16.23
